createdAt,value
2023-04-17T00:00:10.335Z,12.03
2023-04-17T00:02:39.828Z,12.09
2023-04-17T00:05:08.655Z,12.17
2023-04-17T00:07:38.851Z,12.30
2023-04-17T00:10:10.861Z,12.30
2023-04-17T00:12:38.608Z,12.30
2023-04-17T00:15:06.731Z,12.33
2023-04-17T00:17:34.503Z,12.26
2023-04-17T00:20:07.677Z,12.28
2023-04-17T00:22:35.573Z,12.28
2023-04-17T00:25:03.675Z,12.30
2023-04-17T00:27:31.353Z,12.28
2023-04-17T00:29:59.180Z,12.20
2023-04-17T00:32:26.656Z,12.17
2023-04-17T00:34:55.778Z,12.13
2023-04-17T00:37:23.816Z,12.09
2023-04-17T00:39:51.360Z,12.06
2023-04-17T00:42:19.581Z,12.03
2023-04-17T00:44:47.390Z,12.01
2023-04-17T00:47:14.956Z,12.00
2023-04-17T00:49:42.594Z,11.95
2023-04-17T00:52:10.419Z,11.93
2023-04-17T00:54:37.871Z,11.93
2023-04-17T00:57:05.557Z,11.92
2023-04-17T00:59:33.724Z,11.93
2023-04-17T01:02:01.371Z,11.93
2023-04-17T01:04:28.926Z,11.93
2023-04-17T01:06:59.453Z,11.94
2023-04-17T01:09:27.463Z,11.91
2023-04-17T01:12:15.518Z,11.90
2023-04-17T01:14:43.251Z,11.86
2023-04-17T01:17:10.937Z,11.75
2023-04-17T01:19:38.467Z,11.68
2023-04-17T01:22:06.178Z,11.62
2023-04-17T01:24:33.807Z,11.68
2023-04-17T01:27:01.577Z,11.61
2023-04-17T01:29:31.033Z,11.55
2023-04-17T01:31:58.652Z,11.53
2023-04-17T01:34:26.326Z,11.47
2023-04-17T01:36:54.185Z,11.39
2023-04-17T01:39:21.711Z,11.29
2023-04-17T01:41:49.251Z,11.23
2023-04-17T01:44:17.788Z,11.19
2023-04-17T01:46:45.410Z,11.14
2023-04-17T01:49:13.726Z,11.06
2023-04-17T01:51:41.502Z,11.02
2023-04-17T01:54:09.102Z,10.97
2023-04-17T01:56:36.517Z,10.98
2023-04-17T01:59:04.347Z,10.96
2023-04-17T02:01:36.964Z,10.93
2023-04-17T02:04:05.281Z,10.87
2023-04-17T02:06:33.498Z,10.93
2023-04-17T02:09:01.035Z,10.91
2023-04-17T02:11:29.316Z,10.91
2023-04-17T02:13:56.820Z,10.91
2023-04-17T02:16:24.445Z,10.84
2023-04-17T02:18:52.665Z,10.75
2023-04-17T02:21:20.318Z,10.62
2023-04-17T02:23:48.198Z,10.44
2023-04-17T02:26:15.996Z,10.37
2023-04-17T02:28:45.558Z,10.09
2023-04-17T02:31:13.393Z,10.02
2023-04-17T02:33:41.377Z,10.03
2023-04-17T02:36:09.372Z,9.80
2023-04-17T02:38:37.865Z,9.89
2023-04-17T02:41:06.996Z,9.79
2023-04-17T02:43:35.278Z,9.78
2023-04-17T02:46:02.770Z,9.79
2023-04-17T02:48:30.645Z,9.84
2023-04-17T02:50:59.443Z,9.82
2023-04-17T02:53:27.365Z,9.87
2023-04-17T02:55:55.166Z,9.87
2023-04-17T02:58:23.229Z,9.64
2023-04-17T03:00:50.859Z,9.70
2023-04-17T03:03:19.381Z,9.73
2023-04-17T03:05:47.310Z,9.65
2023-04-17T03:08:14.795Z,9.62
2023-04-17T03:10:43.621Z,9.67
2023-04-17T03:13:11.678Z,9.69
2023-04-17T03:15:39.182Z,9.70
2023-04-17T03:18:07.703Z,9.72
2023-04-17T03:20:35.250Z,9.71
2023-04-17T03:23:02.895Z,9.64
2023-04-17T03:25:30.645Z,9.65
2023-04-17T03:27:58.380Z,9.65
2023-04-17T03:30:26.283Z,9.72
2023-04-17T03:32:54.916Z,9.66
2023-04-17T03:35:22.675Z,9.76
2023-04-17T03:37:50.309Z,9.79
2023-04-17T03:40:18.161Z,9.79
2023-04-17T03:42:45.804Z,9.76
2023-04-17T03:45:13.337Z,9.80
2023-04-17T03:47:41.847Z,9.84
2023-04-17T03:50:10.153Z,9.84
2023-04-17T03:52:38.630Z,9.83
2023-04-17T03:55:11.096Z,9.85
2023-04-17T03:57:38.635Z,9.81
2023-04-17T04:00:10.594Z,9.80
2023-04-17T04:02:46.490Z,9.82
2023-04-17T04:05:15.098Z,9.78
2023-04-17T04:07:43.510Z,9.76
2023-04-17T04:10:12.955Z,9.78
2023-04-17T04:12:40.701Z,9.81
2023-04-17T04:15:09.411Z,9.83
2023-04-17T04:17:37.596Z,9.86
2023-04-17T04:20:08.836Z,9.85
2023-04-17T04:22:36.478Z,9.86
2023-04-17T04:25:04.161Z,9.88
2023-04-17T04:27:33.534Z,9.85
2023-04-17T04:30:02.085Z,9.87
2023-04-17T04:32:31.507Z,9.90
2023-04-17T04:35:01.603Z,9.91
2023-04-17T04:37:30.130Z,9.99
2023-04-17T04:40:10.985Z,10.03
2023-04-17T04:42:39.797Z,10.05
2023-04-17T04:45:09.183Z,10.01
2023-04-17T04:47:37.132Z,10.04
2023-04-17T04:50:04.923Z,10.09
2023-04-17T04:52:46.655Z,10.08
2023-04-17T04:55:15.000Z,10.14
2023-04-17T04:57:44.751Z,10.21
2023-04-17T05:00:14.502Z,10.38
2023-04-17T05:02:42.262Z,10.66
2023-04-17T05:05:10.870Z,10.85
2023-04-17T05:07:38.381Z,10.70
2023-04-17T05:10:06.729Z,10.51
2023-04-17T05:12:35.550Z,10.60
2023-04-17T05:15:03.866Z,11.02
2023-04-17T05:17:31.616Z,11.21
2023-04-17T05:19:59.562Z,11.32
2023-04-17T05:22:29.894Z,11.56
2023-04-17T05:24:58.101Z,11.07
2023-04-17T05:27:27.349Z,10.81
2023-04-17T05:29:55.036Z,10.83
2023-04-17T05:32:23.024Z,10.80
2023-04-17T05:34:51.108Z,10.85
2023-04-17T05:37:19.222Z,10.82
2023-04-17T05:39:46.803Z,11.00
2023-04-17T05:42:14.808Z,11.22
2023-04-17T05:44:42.387Z,11.13
2023-04-17T05:47:09.911Z,11.10
2023-04-17T05:49:37.790Z,11.04
2023-04-17T05:52:05.988Z,11.27
2023-04-17T05:54:34.902Z,11.19
2023-04-17T05:57:03.384Z,11.29
2023-04-17T05:59:31.367Z,11.14
2023-04-17T06:01:59.873Z,11.40
2023-04-17T06:04:29.480Z,11.55
2023-04-17T06:06:57.326Z,11.61
2023-04-17T06:09:25.809Z,11.69
2023-04-17T06:12:05.628Z,11.72
2023-04-17T06:14:33.623Z,11.84
2023-04-17T06:17:02.738Z,12.00
2023-04-17T06:19:31.028Z,12.06
2023-04-17T06:21:58.685Z,12.15
2023-04-17T06:24:26.651Z,11.90
2023-04-17T06:26:56.578Z,11.84
2023-04-17T06:29:24.373Z,12.08
2023-04-17T06:31:53.220Z,12.05
2023-04-17T06:34:21.843Z,12.29
2023-04-17T06:36:49.750Z,12.42
2023-04-17T06:39:17.851Z,12.52
2023-04-17T06:41:45.871Z,12.33
2023-04-17T06:44:14.281Z,12.58
2023-04-17T06:46:44.092Z,12.69
2023-04-17T06:49:12.206Z,12.83
2023-04-17T06:51:41.594Z,12.68
2023-04-17T06:54:10.898Z,12.75
2023-04-17T06:56:38.468Z,12.54
2023-04-17T06:59:06.625Z,12.72
2023-04-17T07:01:35.131Z,13.07
2023-04-17T07:04:03.054Z,13.23
2023-04-17T07:06:33.821Z,13.51
2023-04-17T07:09:02.138Z,13.69
2023-04-17T07:11:30.276Z,13.92
2023-04-17T07:13:58.099Z,14.13
2023-04-17T07:16:26.259Z,14.40
2023-04-17T07:18:58.412Z,14.61
2023-04-17T07:21:26.910Z,14.92
2023-04-17T07:23:55.170Z,14.91
2023-04-17T07:26:22.748Z,14.79
2023-04-17T07:28:50.789Z,14.45
2023-04-17T07:31:18.370Z,15.22
2023-04-17T07:33:46.374Z,14.84
2023-04-17T07:36:14.299Z,14.99
2023-04-17T07:38:42.336Z,14.88
2023-04-17T07:41:10.052Z,15.17
2023-04-17T07:43:38.036Z,15.22
2023-04-17T07:46:05.793Z,15.82
2023-04-17T07:48:37.631Z,15.77
2023-04-17T07:51:07.907Z,16.48
2023-04-17T07:53:37.299Z,16.86
2023-04-17T07:56:07.099Z,16.27
2023-04-17T07:58:36.029Z,16.28
2023-04-17T08:01:05.670Z,16.89
2023-04-17T08:03:34.825Z,17.17
2023-04-17T08:06:02.792Z,17.38
2023-04-17T08:08:30.880Z,17.29
2023-04-17T08:10:58.940Z,17.27
2023-04-17T08:13:26.417Z,16.98
2023-04-17T08:15:54.908Z,16.38
2023-04-17T08:18:22.777Z,17.47
2023-04-17T08:20:50.362Z,17.24
2023-04-17T08:23:17.899Z,16.94
2023-04-17T08:25:46.149Z,17.46
2023-04-17T08:28:13.655Z,17.62
2023-04-17T08:30:41.215Z,17.92
2023-04-17T08:33:09.023Z,18.33
2023-04-17T08:35:36.817Z,17.85
2023-04-17T08:38:04.554Z,16.50
2023-04-17T08:40:32.485Z,16.13
2023-04-17T08:43:01.497Z,16.47
2023-04-17T08:45:29.112Z,16.84
2023-04-17T08:47:57.036Z,16.79
2023-04-17T08:50:24.646Z,17.17
2023-04-17T08:52:52.757Z,17.85
2023-04-17T08:55:22.339Z,17.83
2023-04-17T08:57:56.444Z,18.42
2023-04-17T09:00:34.798Z,17.08
2023-04-17T09:03:04.913Z,17.73
2023-04-17T09:05:34.015Z,17.53
2023-04-17T09:08:10.144Z,18.00
2023-04-17T09:10:40.335Z,17.38
2023-04-17T09:13:17.504Z,17.48
2023-04-17T09:15:47.334Z,18.28
2023-04-17T09:21:28.057Z,18.87
2023-04-17T09:23:59.387Z,19.29
2023-04-17T09:26:28.052Z,19.23
2023-04-17T09:29:07.652Z,19.08
2023-04-17T09:31:37.664Z,19.25
2023-04-17T09:34:11.894Z,17.91
2023-04-17T09:36:41.685Z,18.46
2023-04-17T09:39:20.971Z,19.61
2023-04-17T09:41:48.742Z,20.05
2023-04-17T09:44:30.157Z,20.07
2023-04-17T09:46:57.789Z,18.28
2023-04-17T09:49:50.203Z,18.06
2023-04-17T09:52:19.198Z,19.06
2023-04-17T09:54:48.405Z,18.35
2023-04-17T09:57:16.893Z,18.09
2023-04-17T09:59:47.917Z,18.34
2023-04-17T10:02:17.804Z,18.58
2023-04-17T10:04:46.794Z,19.20
2023-04-17T10:07:14.549Z,18.43
2023-04-17T10:09:45.468Z,18.48
2023-04-17T10:12:15.988Z,18.68
2023-04-17T10:14:46.758Z,19.52
2023-04-17T10:17:34.809Z,20.09
2023-04-17T10:20:17.802Z,20.01
2023-04-17T10:22:49.133Z,20.55
2023-04-17T10:25:17.889Z,20.53
2023-04-17T10:27:47.523Z,20.41
2023-04-17T10:30:15.481Z,21.01
2023-04-17T10:32:45.884Z,19.92
2023-04-17T10:35:16.608Z,19.43
2023-04-17T10:37:50.314Z,19.10
2023-04-17T10:40:23.369Z,19.46
2023-04-17T10:43:17.312Z,18.51
2023-04-17T10:46:02.037Z,18.18
2023-04-17T10:48:54.805Z,18.60
2023-04-17T10:51:26.928Z,18.53
2023-04-17T10:54:00.623Z,18.80
2023-04-17T10:56:46.286Z,19.19
2023-04-17T10:59:15.661Z,18.92
2023-04-17T11:01:50.000Z,19.56
2023-04-17T11:04:22.848Z,19.75
2023-04-17T11:06:52.776Z,19.97
2023-04-17T11:09:22.160Z,19.85
2023-04-17T11:11:49.999Z,19.00
2023-04-17T11:14:22.828Z,19.60
2023-04-17T11:16:52.353Z,20.23
2023-04-17T11:19:24.436Z,20.46
2023-04-17T11:21:54.679Z,20.06
2023-04-17T11:24:26.793Z,19.71
2023-04-17T11:26:56.175Z,19.38
2023-04-17T11:29:24.326Z,18.95
2023-04-17T11:31:54.714Z,19.33
2023-04-17T11:34:23.013Z,19.50
2023-04-17T11:36:51.427Z,20.25
2023-04-17T11:39:20.242Z,20.33
2023-04-17T11:41:48.604Z,20.80
2023-04-17T11:44:18.092Z,20.56
2023-04-17T11:46:52.945Z,20.54
2023-04-17T11:49:32.442Z,20.09
2023-04-17T11:52:02.232Z,20.17
2023-04-17T11:54:31.202Z,19.09
2023-04-17T11:57:03.925Z,19.58
2023-04-17T11:59:35.344Z,19.69
2023-04-17T12:02:17.988Z,19.67
2023-04-17T12:04:46.145Z,19.15
2023-04-17T12:07:21.883Z,19.40
2023-04-17T12:09:57.561Z,19.52
2023-04-17T12:12:25.335Z,19.50
2023-04-17T12:14:53.129Z,18.71
2023-04-17T12:17:21.299Z,18.59
2023-04-17T12:19:49.035Z,18.01
2023-04-17T12:22:16.941Z,17.72
2023-04-17T12:24:44.569Z,17.59
2023-04-17T12:27:12.069Z,17.24
2023-04-17T12:29:44.381Z,17.46
2023-04-17T12:32:12.840Z,17.63
2023-04-17T12:34:41.010Z,17.57
2023-04-17T12:37:09.146Z,17.62
2023-04-17T12:39:36.736Z,17.40
2023-04-17T12:42:04.743Z,17.48
2023-04-17T12:44:32.355Z,18.80
2023-04-17T12:46:59.895Z,18.26
2023-04-17T12:49:27.673Z,19.47
2023-04-17T12:51:55.347Z,19.21
2023-04-17T12:54:23.449Z,18.75
2023-04-17T12:56:51.301Z,19.37
2023-04-17T12:59:18.901Z,19.01
2023-04-17T13:01:46.737Z,18.62
2023-04-17T13:04:15.403Z,18.36
2023-04-17T13:06:43.434Z,18.45
2023-04-17T13:09:11.500Z,18.36
2023-04-17T13:11:39.558Z,18.49
2023-04-17T13:14:07.451Z,18.58
2023-04-17T13:16:36.129Z,18.68
2023-04-17T13:19:04.117Z,18.36
2023-04-17T13:21:31.896Z,17.90
2023-04-17T13:23:59.723Z,18.03
2023-04-17T13:26:27.757Z,18.46
2023-04-17T13:28:55.570Z,18.34
2023-04-17T13:31:25.778Z,18.60
2023-04-17T13:33:53.998Z,17.70
2023-04-17T13:36:21.633Z,18.04
2023-04-17T13:38:49.805Z,17.75
2023-04-17T13:41:17.557Z,17.57
2023-04-17T13:43:45.487Z,17.97
2023-04-17T13:46:16.264Z,17.45
2023-04-17T13:48:44.663Z,17.21
2023-04-17T13:51:13.373Z,17.65
2023-04-17T13:53:40.946Z,17.52
2023-04-17T13:56:08.888Z,17.43
2023-04-17T13:58:36.507Z,17.31
2023-04-17T14:01:04.268Z,17.70
2023-04-17T14:03:32.187Z,17.57
2023-04-17T14:05:59.858Z,17.73
2023-04-17T14:08:27.342Z,18.13
2023-04-17T14:10:55.794Z,18.25
2023-04-17T14:13:23.364Z,18.50
2023-04-17T14:15:53.676Z,18.27
2023-04-17T14:20:49.163Z,18.60
2023-04-17T14:23:16.705Z,18.58
2023-04-17T14:25:44.621Z,18.59
2023-04-17T14:28:12.500Z,18.52
2023-04-17T14:30:40.151Z,18.59
2023-04-17T14:33:07.993Z,18.63
2023-04-17T14:35:35.454Z,18.58
2023-04-17T14:38:05.067Z,18.51
2023-04-17T14:40:33.256Z,18.22
2023-04-17T14:43:01.116Z,18.34
2023-04-17T14:45:28.610Z,18.26
2023-04-17T14:47:56.621Z,18.14
2023-04-17T14:50:24.195Z,18.28
2023-04-17T14:52:52.211Z,18.03
2023-04-17T14:55:20.468Z,18.22
2023-04-17T14:57:48.336Z,18.13
2023-04-17T15:00:16.349Z,17.89
2023-04-17T15:02:44.237Z,17.86
2023-04-17T15:05:11.904Z,17.85
2023-04-17T15:07:39.463Z,17.89
2023-04-17T15:10:07.697Z,17.85
2023-04-17T15:12:35.420Z,17.82
2023-04-17T15:15:03.121Z,17.62
2023-04-17T15:17:30.962Z,17.58
2023-04-17T15:20:00.703Z,17.43
2023-04-17T15:22:28.269Z,17.12
2023-04-17T15:24:56.029Z,17.11
2023-04-17T15:27:23.666Z,16.88
2023-04-17T15:29:51.347Z,16.82
2023-04-17T15:32:19.428Z,16.66
2023-04-17T15:34:47.452Z,16.64
2023-04-17T15:37:15.029Z,16.57
2023-04-17T15:39:43.859Z,16.53
2023-04-17T15:42:11.958Z,15.99
2023-04-17T15:44:39.401Z,15.46
2023-04-17T15:47:07.210Z,15.28
2023-04-17T15:49:34.823Z,15.30
2023-04-17T15:52:02.219Z,15.60
2023-04-17T15:54:31.514Z,15.34
2023-04-17T15:56:59.356Z,15.50
2023-04-17T15:59:28.071Z,15.16
2023-04-17T16:01:56.110Z,15.28
2023-04-17T16:04:24.153Z,15.45
2023-04-17T16:06:51.869Z,15.38
2023-04-17T16:09:23.761Z,15.53
2023-04-17T16:11:51.549Z,15.33
2023-04-17T16:14:18.940Z,15.36
2023-04-17T16:16:46.420Z,15.46
2023-04-17T16:19:14.431Z,15.20
2023-04-17T16:21:42.245Z,15.35
2023-04-17T16:24:09.750Z,15.45
2023-04-17T16:26:37.491Z,15.29
2023-04-17T16:29:05.029Z,15.02
2023-04-17T16:31:32.601Z,14.82
2023-04-17T16:34:00.487Z,14.77
2023-04-17T16:36:28.084Z,14.73
2023-04-17T16:38:55.605Z,15.04
2023-04-17T16:41:23.461Z,15.20
2023-04-17T16:43:50.914Z,15.29
2023-04-17T16:46:26.154Z,15.17
2023-04-17T16:49:04.435Z,15.15
2023-04-17T16:51:32.000Z,14.96
2023-04-17T16:53:59.919Z,14.90
2023-04-17T16:56:27.809Z,14.85
2023-04-17T16:58:55.342Z,14.86
2023-04-17T17:01:22.931Z,14.84
2023-04-17T17:03:51.528Z,14.86
2023-04-17T17:06:19.090Z,14.81
2023-04-17T17:08:47.954Z,14.78
2023-04-17T17:11:17.783Z,14.79
2023-04-17T17:13:48.292Z,14.74
2023-04-17T17:16:17.085Z,14.76
2023-04-17T17:18:45.367Z,14.63
2023-04-17T17:21:13.345Z,14.67
2023-04-17T17:23:41.426Z,14.62
2023-04-17T17:26:08.991Z,14.55
2023-04-17T17:28:36.963Z,14.63
2023-04-17T17:31:09.379Z,14.62
2023-04-17T17:33:37.011Z,14.61
2023-04-17T17:36:05.012Z,14.58
2023-04-17T17:38:33.233Z,14.59
2023-04-17T17:41:00.935Z,14.54
2023-04-17T17:43:28.719Z,14.51
2023-04-17T17:45:56.185Z,14.50
2023-04-17T17:48:23.834Z,14.41
2023-04-17T17:50:55.092Z,14.35
2023-04-17T17:53:26.147Z,14.23
2023-04-17T17:55:56.063Z,14.26
2023-04-17T17:58:24.045Z,14.25
2023-04-17T18:00:51.814Z,14.27
2023-04-17T18:03:21.039Z,14.21
2023-04-17T18:05:48.867Z,14.22
2023-04-17T18:08:17.018Z,14.22
2023-04-17T18:10:46.176Z,14.21
2023-04-17T18:13:14.111Z,14.19
2023-04-17T18:15:42.108Z,14.17
2023-04-17T18:18:10.443Z,14.10
2023-04-17T18:20:39.270Z,14.08
2023-04-17T18:23:06.984Z,14.05
2023-04-17T18:25:39.002Z,14.00
2023-04-17T18:28:06.806Z,14.00
2023-04-17T18:30:36.591Z,13.92
2023-04-17T18:33:04.947Z,13.94
2023-04-17T18:35:32.604Z,13.88
2023-04-17T18:38:00.589Z,13.88
2023-04-17T18:40:28.736Z,13.83
2023-04-17T18:42:56.494Z,13.84
2023-04-17T18:45:24.432Z,13.78
2023-04-17T18:47:52.747Z,13.72
2023-04-17T18:50:20.417Z,13.76
2023-04-17T18:52:51.059Z,13.73
2023-04-17T18:55:19.889Z,13.70
2023-04-17T18:57:47.581Z,13.77
2023-04-17T19:00:15.608Z,13.73
2023-04-17T19:02:43.848Z,13.79
2023-04-17T19:05:11.785Z,13.80
2023-04-17T19:07:39.547Z,13.84
2023-04-17T19:10:09.002Z,13.82
2023-04-17T19:12:36.829Z,13.85
2023-04-17T19:15:04.945Z,13.83
2023-04-17T19:17:32.978Z,13.80
2023-04-17T19:20:00.802Z,13.81
2023-04-17T19:22:28.635Z,13.83
2023-04-17T19:24:56.837Z,13.79
2023-04-17T19:27:25.767Z,13.85
2023-04-17T19:29:54.684Z,13.88
2023-04-17T19:32:22.734Z,13.88
2023-04-17T19:34:50.639Z,13.90
2023-04-17T19:37:18.830Z,13.86
2023-04-17T19:39:47.660Z,13.93
2023-04-17T19:42:15.742Z,13.92
2023-04-17T19:44:43.465Z,13.87
2023-04-17T19:47:12.181Z,13.82
2023-04-17T19:49:40.821Z,13.70
2023-04-17T19:52:08.620Z,13.55
2023-04-17T19:54:36.546Z,13.50
2023-04-17T19:57:04.531Z,13.51
2023-04-17T19:59:32.418Z,13.37
2023-04-17T20:02:00.344Z,13.32
2023-04-17T20:04:28.772Z,13.28
2023-04-17T20:06:56.723Z,13.22
2023-04-17T20:09:24.317Z,13.17
2023-04-17T20:11:52.438Z,13.23
2023-04-17T20:14:20.741Z,13.15
2023-04-17T20:16:50.038Z,13.06
2023-04-17T20:19:18.085Z,12.96
2023-04-17T20:21:46.940Z,12.99
2023-04-17T20:24:16.108Z,12.97
2023-04-17T20:26:44.345Z,12.96
2023-04-17T20:29:12.144Z,12.95
2023-04-17T20:31:40.049Z,12.90
2023-04-17T20:34:08.063Z,12.90
2023-04-17T20:36:35.771Z,12.94
2023-04-17T20:39:03.453Z,12.91
2023-04-17T20:41:31.356Z,12.92
2023-04-17T20:43:59.787Z,13.00
2023-04-17T20:46:27.783Z,13.08
2023-04-17T20:48:56.034Z,13.08
2023-04-17T20:51:27.735Z,13.08
2023-04-17T20:53:55.246Z,13.04
2023-04-17T20:56:23.952Z,12.96
2023-04-17T20:58:51.449Z,12.91
2023-04-17T21:01:20.419Z,12.91
2023-04-17T21:03:48.865Z,12.78
2023-04-17T21:06:17.791Z,12.88
2023-04-17T21:08:45.699Z,12.84
2023-04-17T21:11:13.553Z,12.82
2023-04-17T21:13:41.086Z,12.82
2023-04-17T21:16:11.266Z,12.83
2023-04-17T21:18:39.253Z,12.79
2023-04-17T21:21:06.856Z,12.87
2023-04-17T21:23:34.439Z,12.89
2023-04-17T21:26:02.949Z,12.93
2023-04-17T21:28:30.543Z,12.89
2023-04-17T21:30:58.022Z,12.91
2023-04-17T21:33:26.090Z,12.90
2023-04-17T21:35:53.585Z,12.93
2023-04-17T21:38:21.047Z,12.91
2023-04-17T21:40:51.448Z,12.90
2023-04-17T21:43:19.265Z,12.95
2023-04-17T21:45:46.919Z,12.95
2023-04-17T21:48:15.906Z,12.95
2023-04-17T21:50:43.452Z,12.92
2023-04-17T21:53:10.921Z,12.99
2023-04-17T21:55:38.744Z,12.97
2023-04-17T21:58:06.715Z,12.91
2023-04-17T22:00:34.227Z,12.84
2023-04-17T22:03:02.300Z,12.74
2023-04-17T22:05:29.890Z,12.70
2023-04-17T22:07:57.411Z,12.76
2023-04-17T22:10:25.351Z,12.70
2023-04-17T22:12:53.023Z,12.70
2023-04-17T22:15:20.561Z,12.64
2023-04-17T22:17:48.416Z,12.48
2023-04-17T22:20:15.927Z,12.42
2023-04-17T22:22:43.420Z,12.44
2023-04-17T22:25:11.178Z,12.43
2023-04-17T22:27:38.920Z,12.45
2023-04-17T22:30:07.052Z,12.52
2023-04-17T22:32:34.886Z,12.57
2023-04-17T22:35:02.788Z,12.59
2023-04-17T22:37:30.353Z,12.56
2023-04-17T22:39:58.242Z,12.57
2023-04-17T22:42:25.840Z,12.54
2023-04-17T22:44:53.313Z,12.55
2023-04-17T22:47:21.639Z,12.55
2023-04-17T22:49:49.286Z,12.50
2023-04-17T22:52:16.819Z,12.49
2023-04-17T22:54:44.573Z,12.33
2023-04-17T22:57:12.055Z,12.21
2023-04-17T22:59:41.132Z,12.28
2023-04-17T23:02:09.039Z,12.29
2023-04-17T23:04:36.641Z,12.28
2023-04-17T23:07:04.180Z,12.27
2023-04-17T23:09:31.955Z,12.27
2023-04-17T23:11:59.395Z,12.28
2023-04-17T23:14:28.467Z,12.24
2023-04-17T23:16:56.258Z,12.23
2023-04-17T23:19:23.762Z,12.29
2023-04-17T23:21:51.255Z,12.27
2023-04-17T23:24:19.369Z,12.21
2023-04-17T23:26:48.541Z,12.21
2023-04-17T23:29:16.340Z,12.26
2023-04-17T23:31:45.566Z,12.29
2023-04-17T23:34:13.511Z,12.30
2023-04-17T23:36:41.219Z,12.28
2023-04-17T23:39:09.299Z,12.32
2023-04-17T23:41:36.783Z,12.37
2023-04-17T23:44:04.451Z,12.43
2023-04-17T23:46:32.198Z,12.42
2023-04-17T23:48:59.764Z,12.43
2023-04-17T23:51:27.661Z,12.42
2023-04-17T23:53:57.064Z,12.32
2023-04-17T23:56:24.510Z,12.26
2023-04-17T23:58:52.161Z,12.18
